Time;durP1;ratioP1;P1;durP2;ratioP2;P2;SDS_P1;SDS_P2;PMS_P1;PMS_P2;Temp;Humidity;BMP_temperature;BMP_pressure;BME280_temperature;BME280_humidity;BME280_pressure;Samples;Min_cycle;Max_cycle;Signal;HPM_P1;HPM_P2
2021/10/30 00:00:27;;;;;;;;;314.50;246.00;;;;;5.66;80.43;102814.06;4923694;29;9640;-72
2021/10/30 00:03:23;;;;;;;;;317.00;238.75;;;;;5.48;80.40;102812.38;4936057;29;9597;-72
2021/10/30 00:06:19;;;;;;;;;356.50;263.25;;;;;5.57;80.35;102812.78;4935650;29;8858;-72
2021/10/30 00:09:14;;;;;;;;;278.25;225.50;;;;;5.64;79.73;102816.22;4935893;29;8854;-71
2021/10/30 00:12:10;;;;;;;;;329.50;263.75;;;;;5.45;80.02;102814.78;4923625;29;8850;-72
2021/10/30 00:15:08;;;;;;;;;294.25;238.50;;;;;5.44;80.48;102808.44;4935955;29;8838;-72
2021/10/30 00:18:03;;;;;;;;;252.00;177.75;;;;;5.41;80.87;102805.34;4935782;29;8985;-72
2021/10/30 00:20:59;;;;;;;;;335.75;242.75;;;;;5.31;80.90;102808.75;4935801;29;8889;-72
2021/10/30 00:23:55;;;;;;;;;343.00;250.25;;;;;5.48;80.15;102804.13;4935477;29;9003;-72
2021/10/30 00:26:51;;;;;;;;;269.75;201.25;;;;;5.33;80.47;102813.97;4936053;29;8865;-72
2021/10/30 00:29:46;;;;;;;;;367.75;286.50;;;;;5.30;80.11;102821.63;4934756;29;8985;-72
2021/10/30 00:32:42;;;;;;;;;360.75;267.00;;;;;5.26;80.09;102817.69;4935686;29;9605;-72
2021/10/30 00:35:37;;;;;;;;;296.50;243.75;;;;;5.13;80.25;102817.97;4935549;29;8846;-72
2021/10/30 00:38:33;;;;;;;;;323.00;244.50;;;;;5.30;79.28;102821.63;4935355;29;8920;-72
2021/10/30 00:41:15;;;;;;;;;348.00;260.50;;;;;5.27;78.96;102819.34;4935875;29;8934;-72
2021/10/30 00:44:11;;;;;;;;;297.00;231.50;;;;;5.15;79.67;102820.47;4934983;29;8830;-72
2021/10/30 00:47:07;;;;;;;;;308.50;235.25;;;;;5.14;79.70;102818.81;4935249;29;8885;-72
2021/10/30 00:50:04;;;;;;;;;327.75;245.50;;;;;5.25;78.87;102817.94;4935402;29;8858;-72
2021/10/30 00:53:01;;;;;;;;;295.50;232.75;;;;;5.33;78.69;102817.56;4935309;29;8867;-73
2021/10/30 00:56:04;;;;;;;;;293.00;228.50;;;;;5.14;78.80;102821.56;4922631;29;8924;-72
2021/10/30 00:59:04;;;;;;;;;321.00;246.25;;;;;5.14;78.69;102822.41;4934976;29;8870;-72
2021/10/30 01:01:59;;;;;;;;;309.25;216.50;;;;;5.19;78.15;102818.91;4935169;29;8873;-72
2021/10/30 01:04:55;;;;;;;;;301.50;227.50;;;;;5.05;77.98;102823.81;4935066;29;8839;-72
2021/10/30 01:07:51;;;;;;;;;273.25;212.75;;;;;4.95;78.92;102818.13;4923103;29;9615;-71
2021/10/30 01:10:47;;;;;;;;;238.50;202.00;;;;;5.03;78.92;102824.06;4922504;29;9569;-71
2021/10/30 01:13:43;;;;;;;;;273.00;212.25;;;;;5.01;78.23;102828.97;4935109;29;8874;-71
2021/10/30 01:16:38;;;;;;;;;268.50;209.50;;;;;4.93;78.32;102823.03;4935036;29;8843;-71
2021/10/30 01:19:34;;;;;;;;;203.00;169.50;;;;;4.80;79.45;102824.09;4935215;29;8866;-71
2021/10/30 01:22:35;;;;;;;;;203.50;159.50;;;;;5.10;78.38;102829.44;4922225;29;8831;-71
2021/10/30 01:25:31;;;;;;;;;221.50;171.50;;;;;4.93;77.95;102825.78;4921906;29;8849;-70
2021/10/30 01:28:27;;;;;;;;;219.00;167.25;;;;;4.86;78.37;102830.53;4934900;29;8857;-71
2021/10/30 01:31:23;;;;;;;;;198.25;153.50;;;;;4.86;78.33;102822.31;4935010;29;8851;-70
2021/10/30 01:34:20;;;;;;;;;182.25;157.00;;;;;5.03;77.55;102836.94;4934833;29;8823;-70
2021/10/30 01:37:15;;;;;;;;;186.50;156.75;;;;;4.82;78.09;102838.41;4934739;29;8953;-71
2021/10/30 01:40:11;;;;;;;;;140.00;126.00;;;;;4.80;78.91;102834.25;4935014;29;8842;-71
2021/10/30 01:43:07;;;;;;;;;157.25;131.00;;;;;4.78;78.29;102837.22;4933966;29;8834;-70
2021/10/30 01:46:02;;;;;;;;;146.50;116.75;;;;;4.69;78.95;102839.50;4934470;29;8863;-71
2021/10/30 01:48:59;;;;;;;;;117.50;105.25;;;;;4.76;78.95;102835.81;4934633;29;8861;-70
2021/10/30 01:51:55;;;;;;;;;121.00;104.50;;;;;4.79;78.90;102838.06;4922246;29;8835;-71
2021/10/30 01:54:51;;;;;;;;;113.00;100.00;;;;;4.71;78.71;102836.53;4936518;29;8973;-71
2021/10/30 01:57:48;;;;;;;;;112.50;95.75;;;;;4.59;79.08;102836.50;4938478;29;8838;-72
2021/10/30 02:00:46;;;;;;;;;94.75;70.50;;;;;4.58;79.85;102832.09;4925971;29;8842;-71
2021/10/30 02:03:41;;;;;;;;;112.50;93.50;;;;;4.46;79.62;102847.72;4926023;29;8854;-71
2021/10/30 02:06:37;;;;;;;;;124.00;106.25;;;;;4.46;79.45;102850.47;4924074;29;8889;-72
2021/10/30 02:09:32;;;;;;;;;117.75;104.25;;;;;4.56;79.09;102845.22;4938318;29;8870;-72
2021/10/30 02:12:28;;;;;;;;;115.50;101.00;;;;;4.40;79.20;102852.25;4938511;29;8834;-71
2021/10/30 02:15:24;;;;;;;;;120.00;108.00;;;;;4.53;78.62;102851.19;4938403;29;8878;-71
2021/10/30 02:18:19;;;;;;;;;114.75;102.75;;;;;4.48;78.52;102851.06;4938123;29;8831;-71
2021/10/30 02:21:15;;;;;;;;;110.25;95.25;;;;;4.45;78.46;102857.84;4938621;29;8831;-72
2021/10/30 02:24:11;;;;;;;;;119.75;103.75;;;;;4.48;77.95;102862.03;4938174;29;8834;-72
2021/10/30 02:26:39;;;;;;;;;111.00;97.00;;;;;4.58;77.32;102858.69;4939098;29;8941;-71
2021/10/30 02:29:07;;;;;;;;;104.75;91.25;;;;;4.46;77.90;102866.91;4922061;29;8862;-72
2021/10/30 02:32:04;;;;;;;;;110.00;94.50;;;;;4.42;77.54;102862.97;4938072;29;8869;-71
2021/10/30 02:34:59;;;;;;;;;103.75;82.25;;;;;4.43;76.98;102867.38;4937664;29;8873;-71
2021/10/30 02:37:30;;;;;;;;;122.25;101.25;;;;;4.44;77.56;102869.03;4938724;29;8869;-71
2021/10/30 02:40:25;;;;;;;;;94.75;79.75;;;;;4.46;77.12;102870.47;4925142;29;8877;-71
2021/10/30 02:43:21;;;;;;;;;104.00;87.75;;;;;4.32;77.48;102870.94;4937868;29;8839;-72
2021/10/30 02:46:16;;;;;;;;;101.00;85.50;;;;;4.44;76.90;102869.88;4937778;29;8846;-72
2021/10/30 02:49:12;;;;;;;;;103.33;81.00;;;;;4.36;77.15;102872.94;4937648;29;8901;-71
2021/10/30 02:52:08;;;;;;;;;100.00;84.33;;;;;4.54;77.45;102871.22;4936775;29;8855;-71
2021/10/30 02:55:04;;;;;;;;;96.50;80.75;;;;;4.37;77.03;102874.66;4937738;29;8867;-71
2021/10/30 02:57:59;;;;;;;;;97.67;78.67;;;;;4.39;77.60;102877.97;4937360;29;8858;-71
2021/10/30 03:00:55;;;;;;;;;96.50;76.25;;;;;4.44;77.09;102869.88;4937365;29;8830;-71
2021/10/30 03:03:51;;;;;;;;;99.67;74.67;;;;;4.51;77.01;102869.75;4924085;29;8873;-71
2021/10/30 03:06:47;;;;;;;;;96.33;78.00;;;;;4.44;76.91;102886.31;4923907;29;8873;-71
2021/10/30 03:09:16;;;;;;;;;93.00;74.33;;;;;4.41;77.09;102886.78;4938227;29;8866;-71
2021/10/30 03:12:11;;;;;;;;;91.33;73.00;;;;;4.40;77.32;102887.88;4937387;29;8834;-71
2021/10/30 03:15:07;;;;;;;;;99.00;85.67;;;;;4.19;77.84;102891.16;4936343;29;8850;-71
2021/10/30 03:18:03;;;;;;;;;96.67;80.33;;;;;4.35;77.92;102878.69;4937048;29;8863;-70
2021/10/30 03:20:59;;;;;;;;;99.75;83.50;;;;;4.30;78.04;102886.78;4937194;29;8869;-71
2021/10/30 03:23:54;;;;;;;;;97.00;78.67;;;;;4.26;77.64;102883.66;4936999;29;9596;-71
2021/10/30 03:26:50;;;;;;;;;86.67;66.67;;;;;4.21;77.54;102894.47;4936756;29;9021;-72
2021/10/30 03:29:45;;;;;;;;;96.67;77.00;;;;;4.31;77.47;102888.44;4924193;29;8863;-72
2021/10/30 03:32:41;;;;;;;;;92.00;72.33;;;;;4.35;78.47;102892.38;4936582;29;9613;-72
2021/10/30 03:35:37;;;;;;;;;92.67;74.00;;;;;4.30;78.07;102893.09;4936567;29;8834;-72
2021/10/30 03:38:33;;;;;;;;;100.33;79.33;;;;;4.36;77.91;102886.66;4924007;29;8878;-72
2021/10/30 03:41:28;;;;;;;;;91.00;72.33;;;;;4.21;77.20;102886.25;4936588;29;8835;-72
2021/10/30 03:44:24;;;;;;;;;95.00;72.33;;;;;4.34;77.13;102893.44;4936636;29;8842;-72
2021/10/30 03:47:19;;;;;;;;;96.67;75.00;;;;;4.19;78.01;102894.72;4936193;29;8924;-73
2021/10/30 03:50:15;;;;;;;;;12.00;1.00;;;;;4.11;78.34;102897.81;4936590;29;8846;-72
2021/10/30 03:53:11;;;;;;;;;89.67;72.00;;;;;4.02;79.16;102896.47;4923599;29;9657;-72
2021/10/30 03:56:06;;;;;;;;;86.00;67.67;;;;;4.07;79.24;102902.09;4935415;29;8839;-72
2021/10/30 03:59:02;;;;;;;;;87.00;69.00;;;;;4.09;79.01;102899.94;4923453;29;8835;-72
2021/10/30 04:01:58;;;;;;;;;90.00;70.67;;;;;4.07;78.98;102893.03;4936354;29;8839;-72
2021/10/30 04:04:54;;;;;;;;;96.67;76.00;;;;;4.14;78.76;102894.59;4935917;29;9573;-72
2021/10/30 04:07:50;;;;;;;;;91.00;69.00;;;;;4.02;78.49;102898.38;4934995;29;8827;-71
2021/10/30 04:10:46;;;;;;;;;90.67;69.00;;;;;3.98;78.18;102903.47;4935490;29;8846;-72
2021/10/30 04:13:41;;;;;;;;;90.33;71.33;;;;;3.92;78.67;102898.09;4931035;29;8815;-72
2021/10/30 04:16:37;;;;;;;;;87.00;68.33;;;;;3.80;79.34;102895.31;4922904;29;8846;-72
2021/10/30 04:19:32;;;;;;;;;93.33;74.67;;;;;3.79;79.48;102896.38;4925275;29;8839;-71
2021/10/30 04:22:28;;;;;;;;;97.00;78.00;;;;;3.86;79.32;102899.88;4934411;29;9025;-72
2021/10/30 04:25:24;;;;;;;;;93.33;75.00;;;;;3.76;80.22;102905.91;4918383;29;8835;-71
2021/10/30 04:28:21;;;;;;;;;91.00;71.00;;;;;3.81;79.90;102906.03;4901021;29;9570;-71
2021/10/30 04:31:21;;;;;;;;;85.00;67.00;;;;;3.46;82.77;102905.03;4902749;29;8853;-71
2021/10/30 04:34:22;;;;;;;;;101.00;76.00;;;;;3.69;83.03;102904.31;4919297;29;8851;-72
2021/10/30 04:37:18;;;;;;;;;89.67;71.33;;;;;3.72;82.56;102912.06;4932771;29;8858;-71
2021/10/30 04:40:14;;;;;;;;;103.67;79.67;;;;;3.86;82.09;102913.56;4933862;29;8878;-72
2021/10/30 04:43:10;;;;;;;;;94.00;75.00;;;;;4.03;81.35;102919.22;4918268;29;8924;-71
2021/10/30 04:46:07;;;;;;;;;108.33;84.67;;;;;4.06;80.93;102918.72;4932759;29;8881;-72
2021/10/30 04:49:03;;;;;;;;;98.67;66.00;;;;;4.08;80.88;102925.66;4934139;29;8986;-71
2021/10/30 04:51:59;;;;;;;;;109.00;97.00;;;;;4.00;81.62;102926.00;4920961;29;8859;-71
2021/10/30 04:54:55;;;;;;;;;97.67;76.33;;;;;4.02;81.30;102926.59;4933264;29;8860;-71
2021/10/30 04:57:23;;;;;;;;;100.00;78.00;;;;;4.13;81.02;102927.69;4911469;29;8920;-71
2021/10/30 04:59:51;;;;;;;;;101.33;76.33;;;;;4.11;81.31;102933.41;4916275;29;9702;-72
2021/10/30 05:02:37;;;;;;;;;103.00;83.00;;;;;4.10;81.26;102933.63;4915964;29;9673;-72
2021/10/30 05:05:06;;;;;;;;;100.00;80.33;;;;;4.15;81.80;102931.06;4926711;29;9028;-72
2021/10/30 05:07:47;;;;;;;;;102.00;83.67;;;;;4.19;82.46;102934.97;4934161;29;9655;-71
2021/10/30 05:10:43;;;;;;;;;101.33;84.67;;;;;4.32;82.12;102940.25;4915523;29;8873;-71
2021/10/30 05:13:38;;;;;;;;;100.00;78.33;;;;;4.60;81.67;102941.50;4914938;29;8963;-71
2021/10/30 05:16:34;;;;;;;;;105.00;85.00;;;;;4.65;81.72;102950.69;4922969;29;8905;-70
2021/10/30 05:19:29;;;;;;;;;104.00;87.00;;;;;4.69;81.68;102956.56;4915968;29;8901;-69
2021/10/30 05:21:57;;;;;;;;;105.33;91.00;;;;;4.82;81.54;102956.31;4934584;29;10348;-71
2021/10/30 05:24:53;;;;;;;;;113.75;99.50;;;;;4.87;81.82;102961.94;4913889;29;8915;-70
2021/10/30 05:27:49;;;;;;;;;130.25;109.25;;;;;4.91;81.57;102951.34;4914598;29;8849;-69
2021/10/30 05:30:44;;;;;;;;;130.75;92.25;;;;;5.04;81.55;102962.03;4914576;29;9681;-69
2021/10/30 05:33:40;;;;;;;;;129.50;111.75;;;;;5.17;81.76;102964.56;4915910;29;8956;-69
2021/10/30 05:36:37;;;;;;;;;122.50;100.50;;;;;5.20;82.13;102964.06;4933475;29;8940;-70
2021/10/30 05:39:10;;;;;;;;;124.50;107.50;;;;;5.41;81.89;102964.53;4917627;29;8968;-68
2021/10/30 05:42:08;;;;;;;;;140.25;110.00;;;;;5.61;81.52;102970.47;4933024;29;8858;-69
2021/10/30 05:45:05;;;;;;;;;121.25;102.00;;;;;5.69;82.13;102969.25;4920772;29;8892;-71
2021/10/30 05:48:02;;;;;;;;;135.75;115.25;;;;;5.82;82.33;102961.56;4920513;29;9678;-71
2021/10/30 05:50:58;;;;;;;;;117.00;103.50;;;;;6.00;82.54;102968.00;4921555;29;8951;-71
2021/10/30 05:53:53;;;;;;;;;131.00;110.75;;;;;6.26;81.97;102972.06;4914419;29;8891;-71
2021/10/30 05:56:49;;;;;;;;;109.75;90.25;;;;;6.43;81.49;102970.16;4914756;29;8957;-71
2021/10/30 05:59:46;;;;;;;;;154.25;132.00;;;;;6.59;81.16;102972.09;4932600;29;8903;-71
2021/10/30 06:02:32;;;;;;;;;99.33;83.00;;;;;6.55;80.97;102973.69;4934029;29;8881;-71
2021/10/30 06:05:27;;;;;;;;;94.67;71.00;;;;;6.72;80.19;102973.72;4919210;29;8924;-71
2021/10/30 06:08:23;;;;;;;;;104.00;90.33;;;;;6.91;80.25;102972.38;4932217;29;8945;-71
2021/10/30 06:11:18;;;;;;;;;82.33;65.67;;;;;7.26;79.30;102976.75;4918912;29;8834;-72
2021/10/30 06:14:14;;;;;;;;;78.33;63.67;;;;;7.52;78.10;102969.72;4934450;29;8842;-72
2021/10/30 06:16:46;;;;;;;;;71.33;58.00;;;;;7.59;77.42;102977.75;4934066;29;8851;-71
2021/10/30 06:19:13;;;;;;;;;74.50;59.25;;;;;7.78;76.93;102968.09;4926850;29;11579;-71
2021/10/30 06:21:41;;;;;;;;;67.50;56.75;;;;;7.87;76.46;102974.81;4935132;29;11569;-71
2021/10/30 06:24:09;;;;;;;;;67.25;55.75;;;;;8.16;75.76;102971.84;4933678;29;11562;-72
2021/10/30 06:27:05;;;;;;;;;66.75;56.75;;;;;8.39;74.46;102971.56;4919221;29;11579;-71
2021/10/30 06:30:00;;;;;;;;;71.25;58.00;;;;;8.44;74.89;102973.56;4934123;29;11550;-72
2021/10/30 06:32:28;;;;;;;;;69.00;55.00;;;;;8.59;73.87;102979.22;4934963;29;11564;-72
2021/10/30 06:34:56;;;;;;;;;63.75;52.25;;;;;8.69;74.08;102972.94;4918598;29;11615;-73
2021/10/30 06:37:52;;;;;;;;;66.75;55.75;;;;;8.84;73.68;102973.91;4934062;29;11642;-72
2021/10/30 06:40:48;;;;;;;;;54.75;47.75;;;;;9.03;72.97;102974.31;4933898;29;11747;-71
2021/10/30 06:43:36;;;;;;;;;67.25;55.25;;;;;9.18;72.20;102985.47;4919211;29;11556;-71
2021/10/30 06:46:03;;;;;;;;;57.75;49.50;;;;;9.38;71.92;102990.28;4933937;29;11672;-72
2021/10/30 06:48:47;;;;;;;;;64.25;51.00;;;;;9.60;71.47;102986.56;4936855;29;11566;-72
2021/10/30 06:51:15;;;;;;;;;60.50;48.50;;;;;9.76;70.85;102993.81;4921069;29;11794;-72
2021/10/30 06:53:43;;;;;;;;;65.75;52.75;;;;;9.79;70.51;102978.63;4921205;29;11740;-71
2021/10/30 06:56:40;;;;;;;;;65.00;54.00;;;;;9.93;70.23;102980.59;4924631;29;11631;-73
2021/10/30 06:59:09;;;;;;;;;64.50;53.50;;;;;10.01;70.36;102982.84;4938044;29;11548;-72
2021/10/30 07:01:40;;;;;;;;;58.00;48.75;;;;;10.27;69.68;102986.56;4921420;29;11641;-71
2021/10/30 07:04:08;;;;;;;;;54.00;45.75;;;;;10.54;69.55;102989.09;4919640;29;12358;-71
2021/10/30 07:07:04;;;;;;;;;52.25;45.00;;;;;10.76;68.94;102988.00;4924386;29;11723;-72
2021/10/30 07:10:00;;;;;;;;;48.00;41.75;;;;;11.00;68.35;102988.28;4924360;29;11652;-72
2021/10/30 07:12:30;;;;;;;;;59.25;48.25;;;;;11.24;67.77;102983.81;4920935;29;11512;-72
2021/10/30 07:15:05;;;;;;;;;55.25;46.00;;;;;11.42;67.29;102990.69;4938119;29;11614;-71
2021/10/30 07:18:01;;;;;;;;;55.25;45.00;;;;;11.52;66.99;102981.53;4936499;29;11565;-72
2021/10/30 07:20:56;;;;;;;;;54.50;46.25;;;;;11.88;66.24;102974.75;4936888;29;11609;-72
2021/10/30 07:23:54;;;;;;;;;55.00;47.50;;;;;12.04;66.02;102977.44;4936623;29;11554;-72
2021/10/30 07:26:36;;;;;;;;;58.50;49.25;;;;;12.18;65.46;102979.31;4936774;29;11550;-72
2021/10/30 07:29:04;;;;;;;;;17.50;17.50;;;;;12.32;65.29;102971.19;4937461;29;11513;-71
2021/10/30 07:31:59;;;;;;;;;72.50;58.50;;;;;12.62;64.51;102972.09;4936465;29;11485;-72
2021/10/30 07:34:55;;;;;;;;;52.25;44.75;;;;;12.75;64.15;102974.22;4936707;29;11687;-72
2021/10/30 07:37:57;;;;;;;;;52.00;44.00;;;;;13.13;63.39;102977.22;4935783;29;11487;-73
2021/10/30 07:40:25;;;;;;;;;57.75;48.00;;;;;13.40;62.99;102973.91;4937581;29;11504;-73
2021/10/30 07:42:53;;;;;;;;;63.50;51.00;;;;;13.53;62.63;102970.41;4920332;29;11513;-74
2021/10/30 07:45:20;;;;;;;;;69.50;55.00;;;;;13.73;61.97;102969.34;4937206;29;11497;-73
2021/10/30 07:48:02;;;;;;;;;51.25;42.25;;;;;13.78;61.51;102969.28;4936123;29;11498;-72
2021/10/30 07:50:30;;;;;;;;;50.50;43.50;;;;;13.96;61.41;102964.91;4937317;29;11621;-72
2021/10/30 07:52:59;;;;;;;;;49.75;42.25;;;;;14.26;60.49;102975.59;4936706;29;11509;-73
2021/10/30 07:55:40;;;;;;;;;43.75;37.00;;;;;14.66;60.07;102968.59;4936328;29;10833;-73
2021/10/30 07:58:16;;;;;;;;;46.00;40.00;;;;;14.81;59.39;102970.31;4936856;29;10812;-73
2021/10/30 08:00:44;;;;;;;;;31.75;31.75;;;;;15.12;58.46;102970.59;4937166;29;10548;-73
2021/10/30 08:03:12;;;;;;;;;38.25;34.25;;;;;15.33;58.34;102970.19;4930768;29;10230;-73
2021/10/30 08:05:42;;;;;;;;;34.50;33.75;;;;;15.34;57.83;102964.31;4937343;29;10369;-73
2021/10/30 08:08:37;;;;;;;;;42.50;35.75;;;;;15.49;57.16;102969.59;4935546;29;10425;-73
2021/10/30 08:11:27;;;;;;;;;24.50;24.50;;;;;15.71;56.47;102968.88;4936728;29;10427;-73
2021/10/30 08:13:55;;;;;;;;;31.00;31.00;;;;;15.60;56.06;102961.03;4934919;29;9865;-73
2021/10/30 08:16:23;;;;;;;;;31.00;31.00;;;;;15.78;56.04;102960.94;4933820;29;9979;-73
2021/10/30 08:18:51;;;;;;;;;29.00;29.00;;;;;15.70;55.72;102958.88;4918753;29;9795;-72
2021/10/30 08:21:47;;;;;;;;;29.00;28.25;;;;;15.83;55.65;102958.03;4932670;29;9654;-72
2021/10/30 08:24:15;;;;;;;;;36.25;33.50;;;;;16.08;54.84;102951.06;4919871;29;9697;-73
2021/10/30 08:26:43;;;;;;;;;31.50;31.50;;;;;16.43;54.10;102958.94;4936182;29;9734;-71
2021/10/30 08:29:13;;;;;;;;;25.33;25.33;;;;;16.50;51.33;102953.75;4936205;29;9415;-73
2021/10/30 08:31:48;;;;;;;;;26.33;25.00;;;;;16.85;49.40;102950.06;4920681;29;9341;-72
2021/10/30 08:34:16;;;;;;;;;21.67;21.00;;;;;17.20;48.60;102947.47;4919638;29;9322;-72
2021/10/30 08:36:43;;;;;;;;;21.00;19.67;;;;;17.45;47.37;102946.75;4936717;29;9088;-72
2021/10/30 08:39:11;;;;;;;;;31.33;30.00;;;;;17.44;45.67;102950.69;4919639;29;9135;-72
2021/10/30 08:41:40;;;;;;;;;8.00;8.00;;;;;17.63;44.99;102956.00;4919996;29;9250;-72
2021/10/30 08:44:07;;;;;;;;;18.25;18.25;;;;;17.81;44.71;102951.34;4936573;29;9618;-72
2021/10/30 08:46:36;;;;;;;;;15.00;15.00;;;;;17.92;44.42;102949.88;4936642;29;8853;-72
2021/10/30 08:49:06;;;;;;;;;16.25;15.25;;;;;18.27;43.99;102949.94;4936478;29;9586;-72
2021/10/30 08:51:34;;;;;;;;;14.75;14.75;;;;;18.34;43.26;102948.28;4936599;29;8901;-72
2021/10/30 08:54:01;;;;;;;;;14.75;14.75;;;;;18.60;41.92;102953.03;4936315;29;8869;-72
2021/10/30 08:56:37;;;;;;;;;12.00;12.00;;;;;18.45;41.36;102945.97;4936336;29;8853;-72
2021/10/30 08:59:09;;;;;;;;;11.00;11.00;;;;;18.83;41.49;102948.91;4919579;29;9661;-71
2021/10/30 09:01:52;;;;;;;;;41.67;35.67;;;;;18.74;39.75;102947.28;4935971;29;9702;-72
2021/10/30 09:04:20;;;;;;;;;49.33;41.33;;;;;18.88;39.99;102947.94;4935540;29;9402;-72
2021/10/30 09:07:08;;;;;;;;;16.50;15.75;;;;;18.50;40.46;102940.19;4936159;29;9347;-72
2021/10/30 09:09:37;;;;;;;;;9.75;9.75;;;;;18.77;40.89;102938.19;4919300;29;8865;-71
2021/10/30 09:12:06;;;;;;;;;36.75;33.25;;;;;19.10;40.81;102939.28;4934992;29;8875;-71
2021/10/30 09:14:44;;;;;;;;;23.00;23.00;;;;;19.20;39.42;102935.28;4919512;29;8865;-72
2021/10/30 09:17:15;;;;;;;;;22.75;22.25;;;;;19.38;39.65;102933.22;4935999;29;8869;-72
2021/10/30 09:19:49;;;;;;;;;9.75;9.75;;;;;19.58;39.41;102928.88;4935914;29;8872;-71
2021/10/30 09:22:19;;;;;;;;;10.25;10.25;;;;;19.81;39.35;102932.22;4936012;29;8853;-71
2021/10/30 09:24:51;;;;;;;;;9.25;9.25;;;;;19.42;38.01;102934.22;4936239;29;8865;-72
2021/10/30 09:27:46;;;;;;;;;6.25;6.25;;;;;19.65;37.33;102927.19;4918931;29;8869;-72
2021/10/30 09:30:27;;;;;;;;;8.00;8.00;;;;;19.60;37.60;102927.34;4932034;29;8927;-72
2021/10/30 09:33:01;;;;;;;;;9.25;9.25;;;;;19.65;36.93;102929.97;4919296;29;9655;-72
2021/10/30 09:35:32;;;;;;;;;21.50;13.50;;;;;19.83;36.80;102929.88;4935932;29;8894;-72
2021/10/30 09:38:00;;;;;;;;;6.00;6.00;;;;;19.48;37.07;102920.81;4919031;29;8853;-72
2021/10/30 09:40:31;;;;;;;;;5.50;5.50;;;;;19.80;36.10;102927.75;4919015;29;8857;-72
2021/10/30 09:43:19;;;;;;;;;6.75;6.75;;;;;19.77;36.91;102926.44;4936065;29;9046;-72
2021/10/30 09:46:06;;;;;;;;;7.50;7.50;;;;;19.62;36.16;102913.81;4918954;29;8861;-72
2021/10/30 09:48:40;;;;;;;;;5.75;5.75;;;;;19.84;36.27;102917.47;4935770;29;8873;-72
2021/10/30 09:51:07;;;;;;;;;14.50;13.25;;;;;19.89;36.35;102929.34;4935532;29;8961;-72
2021/10/30 09:53:40;;;;;;;;;8.00;8.00;;;;;20.13;35.84;102914.63;4919259;29;8849;-72
2021/10/30 09:56:12;;;;;;;;;8.00;8.00;;;;;20.45;34.98;102915.03;4919142;29;8931;-72
2021/10/30 09:58:46;;;;;;;;;7.00;7.00;;;;;20.46;34.32;102903.44;4935790;29;8861;-72
2021/10/30 10:01:17;;;;;;;;;15.50;15.50;;;;;20.35;34.47;102904.19;4918620;29;8865;-72
2021/10/30 10:03:50;;;;;;;;;5.25;5.25;;;;;20.59;34.71;102903.50;4918917;29;8849;-72
2021/10/30 10:06:23;;;;;;;;;15.25;15.00;;;;;20.61;34.19;102899.16;4918585;29;9607;-71
2021/10/30 10:08:51;;;;;;;;;22.50;22.50;;;;;20.79;34.25;102908.25;4935632;29;8853;-72
2021/10/30 10:11:21;;;;;;;;;11.00;11.00;;;;;20.59;34.31;102898.69;4935756;29;8972;-72
2021/10/30 10:14:01;;;;;;;;;28.00;28.00;;;;;20.60;34.28;102893.88;4935471;29;8844;-72
2021/10/30 10:16:29;;;;;;;;;22.50;22.25;;;;;20.64;34.34;102894.84;4938399;29;8857;-72
2021/10/30 10:18:59;;;;;;;;;38.50;34.50;;;;;20.54;34.78;102890.47;4939280;29;8849;-72
2021/10/30 10:21:34;;;;;;;;;38.25;32.25;;;;;20.66;34.17;102889.69;4939313;29;8931;-72
2021/10/30 10:24:03;;;;;;;;;5.50;5.50;;;;;20.69;34.36;102880.56;4923013;29;8883;-73
2021/10/30 10:26:51;;;;;;;;;38.00;33.50;;;;;20.67;33.94;102882.91;4938993;29;8877;-72
2021/10/30 10:29:41;;;;;;;;;5.50;5.50;;;;;20.52;35.15;102875.94;4938437;29;8888;-72
2021/10/30 10:32:22;;;;;;;;;7.75;7.75;;;;;20.34;34.82;102866.00;4938588;29;9090;-72
2021/10/30 10:34:51;;;;;;;;;43.75;37.75;;;;;20.62;34.57;102869.88;4921926;29;9642;-72
2021/10/30 10:37:24;;;;;;;;;14.50;13.75;;;;;20.82;34.55;102869.00;4938795;29;8865;-72
2021/10/30 10:40:03;;;;;;;;;15.50;15.50;;;;;21.06;34.73;102870.19;4938710;29;8871;-72
2021/10/30 10:42:34;;;;;;;;;10.00;10.00;;;;;20.82;34.82;102869.00;4937571;29;8857;-72
2021/10/30 10:45:03;;;;;;;;;22.50;22.50;;;;;20.58;34.94;102868.94;4938637;29;8910;-73
2021/10/30 10:47:35;;;;;;;;;9.50;9.00;;;;;20.60;35.08;102855.34;4921706;29;8869;-74
2021/10/30 10:50:18;;;;;;;;;23.50;22.00;;;;;20.52;35.39;102859.06;4921494;29;8884;-72
2021/10/30 10:53:01;;;;;;;;;8.00;8.00;;;;;20.77;35.03;102857.94;4938568;29;8864;-72
2021/10/30 10:55:34;;;;;;;;;15.25;13.00;;;;;21.10;34.68;102857.06;4938292;29;8861;-73
2021/10/30 10:58:04;;;;;;;;;11.25;11.25;;;;;20.83;35.18;102844.50;4938426;29;8944;-73
2021/10/30 11:00:34;;;;;;;;;11.00;11.00;;;;;21.03;34.29;102851.22;4938730;29;8861;-72
2021/10/30 11:03:03;;;;;;;;;14.00;13.00;;;;;21.09;35.22;102847.00;4921754;29;8861;-72
2021/10/30 11:05:35;;;;;;;;;9.50;9.50;;;;;21.23;34.41;102852.25;4921965;29;8849;-72
2021/10/30 11:08:28;;;;;;;;;6.00;6.00;;;;;21.07;34.94;102846.50;4938403;29;8857;-72
2021/10/30 11:11:16;;;;;;;;;40.75;33.50;;;;;21.56;33.80;102830.47;4921709;29;8853;-72
2021/10/30 11:13:56;;;;;;;;;11.25;11.25;;;;;21.36;33.91;102843.50;4921853;29;9665;-71
2021/10/30 11:16:28;;;;;;;;;7.75;7.75;;;;;21.21;34.01;102837.72;4938041;29;9097;-72
2021/10/30 11:19:11;;;;;;;;;29.25;28.50;;;;;21.16;34.19;102832.31;4921425;29;8849;-72
2021/10/30 11:21:50;;;;;;;;;8.00;8.00;;;;;21.35;34.57;102824.97;4938365;29;8864;-72
2021/10/30 11:24:25;;;;;;;;;5.25;5.25;;;;;21.17;34.91;102829.19;4938248;29;8927;-72
2021/10/30 11:26:55;;;;;;;;;6.25;6.25;;;;;21.21;34.83;102832.09;4937159;29;8852;-71
2021/10/30 11:29:23;;;;;;;;;8.00;8.00;;;;;21.42;34.06;102832.00;4937932;29;8944;-72
2021/10/30 11:31:59;;;;;;;;;2.25;2.25;;;;;21.03;34.31;102835.16;4938115;29;8872;-71
2021/10/30 11:34:28;;;;;;;;;8.75;8.75;;;;;21.30;33.78;102838.44;4921409;29;8952;-72
2021/10/30 11:36:57;;;;;;;;;8.50;8.50;;;;;21.40;34.07;102832.34;4921105;29;8884;-72
2021/10/30 11:39:29;;;;;;;;;1.50;1.50;;;;;21.55;33.86;102847.72;4937614;29;9591;-71
2021/10/30 11:42:03;;;;;;;;;26.75;25.75;;;;;21.65;33.99;102833.94;4937101;29;8857;-71
2021/10/30 11:44:30;;;;;;;;;10.75;10.25;;;;;21.81;33.00;102836.84;4901865;29;8855;-72
2021/10/30 11:47:14;;;;;;;;;17.25;12.50;;;;;21.72;33.23;102838.97;4918562;29;9646;-72
2021/10/30 11:49:42;;;;;;;;;5.00;5.00;;;;;21.42;33.89;102827.19;4918611;29;8851;-72
2021/10/30 11:52:45;;;;;;;;;6.75;6.75;;;;;21.57;33.45;102832.09;4903300;29;8970;-72
2021/10/30 11:55:52;;;;;;;;;7.50;7.50;;;;;21.75;33.67;102824.19;4897383;29;8872;-71
2021/10/30 11:58:40;;;;;;;;;25.00;23.50;;;;;21.36;33.78;102826.59;4898726;29;8884;-72
2021/10/30 12:01:35;;;;;;;;;23.00;22.50;;;;;21.86;33.50;102813.25;4900139;29;8974;-72
2021/10/30 12:04:20;;;;;;;;;14.75;14.75;;;;;21.85;33.24;102814.41;4897763;29;8888;-71
2021/10/30 12:07:09;;;;;;;;;15.25;11.50;;;;;21.68;33.36;102812.69;4903827;29;8871;-72
2021/10/30 12:09:43;;;;;;;;;6.00;6.00;;;;;21.73;33.20;102811.63;4916908;29;8863;-72
2021/10/30 12:12:20;;;;;;;;;32.25;26.00;;;;;21.49;33.64;102812.53;4913338;29;8875;-72
2021/10/30 12:14:56;;;;;;;;;11.75;11.25;;;;;22.03;33.19;102809.31;4915297;29;8977;-71
2021/10/30 12:17:31;;;;;;;;;5.00;5.00;;;;;21.97;33.21;102805.09;4908108;29;8859;-71
2021/10/30 12:20:17;;;;;;;;;5.75;5.75;;;;;21.72;33.53;102799.56;4903653;29;8934;-71
2021/10/30 12:22:45;;;;;;;;;9.50;9.50;;;;;21.62;34.14;102800.03;4917830;29;8863;-72
2021/10/30 12:25:41;;;;;;;;;8.00;8.00;;;;;21.73;33.42;102806.81;4917359;29;8863;-71
2021/10/30 12:28:10;;;;;;;;;9.75;7.25;;;;;21.45;33.59;102801.13;4915228;29;8859;-71
2021/10/30 12:30:38;;;;;;;;;12.25;12.00;;;;;21.29;33.63;102803.03;4913807;29;8903;-72
2021/10/30 12:33:16;;;;;;;;;8.00;8.00;;;;;21.10;33.98;102804.44;4916026;29;8873;-72
2021/10/30 12:35:48;;;;;;;;;8.00;8.00;;;;;21.25;33.87;102802.09;4915962;29;8944;-72
2021/10/30 12:38:26;;;;;;;;;13.00;13.00;;;;;21.04;34.08;102805.03;4914966;29;8957;-71